TimeMDT,TemperatureF,Dew PointF,Humidity,Sea Level PressureIn,VisibilityMPH,Wind Direction,Wind SpeedMPH,Gust SpeedMPH,PrecipitationIn,Events,Conditions,WindDirDegrees,DateUTC
12:53 AM,66.0,52.0,60,29.82,10.0,SSW,3.5,-,N/A,,Clear,210,2013-07-12 06:53:00
1:53 AM,64.9,53.1,65,29.83,10.0,SW,5.8,-,N/A,,Clear,230,2013-07-12 07:53:00
2:53 AM,64.0,53.1,67,29.82,10.0,Calm,Calm,-,N/A,,Clear,0,2013-07-12 08:53:00
3:53 AM,62.1,53.1,72,29.83,10.0,Calm,Calm,-,N/A,,Clear,0,2013-07-12 09:53:00
4:53 AM,59.0,53.1,81,29.87,10.0,Calm,Calm,-,N/A,,Clear,0,2013-07-12 10:53:00
5:53 AM,59.0,53.1,81,29.90,10.0,Calm,Calm,-,N/A,,Clear,0,2013-07-12 11:53:00
7:53 AM,64.9,54.0,68,29.90,10.0,Calm,Calm,-,N/A,,Clear,0,2013-07-12 13:53:00
8:53 AM,69.1,54.0,58,29.90,10.0,Calm,Calm,-,N/A,,Clear,0,2013-07-12 14:53:00
9:53 AM,73.9,52.0,46,29.89,10.0,Variable,3.5,-,N/A,,Clear,0,2013-07-12 15:53:00
10:53 AM,77.0,53.1,43,29.88,10.0,SSW,11.5,-,N/A,,Scattered Clouds,200,2013-07-12 16:53:00
11:53 AM,80.1,50.0,35,29.86,10.0,SW,11.5,21.9,N/A,,Scattered Clouds,220,2013-07-12 17:53:00
12:53 PM,77.0,48.0,36,29.88,10.0,South,13.8,-,N/A,,Scattered Clouds,190,2013-07-12 18:53:00
1:53 PM,79.0,48.9,35,29.86,10.0,SSE,10.4,-,N/A,,Clear,160,2013-07-12 19:53:00
2:53 PM,80.1,48.9,34,29.83,10.0,SW,16.1,24.2,N/A,,Partly Cloudy,220,2013-07-12 20:53:00
3:53 PM,80.1,45.0,29,29.83,10.0,Variable,4.6,-,N/A,,Clear,0,2013-07-12 21:53:00
4:53 PM,82.0,44.1,26,29.80,10.0,SSW,5.8,-,N/A,,Partly Cloudy,210,2013-07-12 22:53:00
5:53 PM,81.0,46.9,30,29.80,10.0,SW,18.4,26.5,N/A,,Clear,230,2013-07-12 23:53:00
6:53 PM,80.1,46.0,30,29.82,10.0,NNW,4.6,-,N/A,,Clear,330,2013-07-13 00:53:00
7:53 PM,79.0,46.0,31,29.80,10.0,NW,9.2,-,N/A,,Scattered Clouds,310,2013-07-13 01:53:00
8:53 PM,71.1,48.9,45,29.86,10.0,NW,4.6,-,N/A,,Partly Cloudy,320,2013-07-13 02:53:00
9:53 PM,68.0,48.0,49,29.87,10.0,Calm,Calm,-,N/A,,Partly Cloudy,0,2013-07-13 03:53:00
10:53 PM,68.0,48.0,49,29.89,10.0,South,5.8,-,N/A,,Partly Cloudy,170,2013-07-13 04:53:00
11:53 PM,66.0,48.0,52,29.88,10.0,NNW,3.5,-,N/A,,Clear,340,2013-07-13 05:53:00